sensor_id;sensor_type;location;lat;lon;timestamp;pressure;altitude;pressure_sealevel;temperature;humidity
7297;BME280;40758;54.038;11.684;2023-04-15T00:01:50;100772.88;;;5.15;91.99
7297;BME280;40758;54.038;11.684;2023-04-15T00:04:17;100772.31;;;5.19;92.09
7297;BME280;40758;54.038;11.684;2023-04-15T00:06:51;100769.81;;;5.18;91.97
7297;BME280;40758;54.038;11.684;2023-04-15T00:09:19;100777.88;;;5.18;92.10
7297;BME280;40758;54.038;11.684;2023-04-15T00:11:46;100772.41;;;5.11;91.93
7297;BME280;40758;54.038;11.684;2023-04-15T00:14:13;100776.88;;;5.19;91.68
7297;BME280;40758;54.038;11.684;2023-04-15T00:16:39;100764.03;;;5.21;92.06
7297;BME280;40758;54.038;11.684;2023-04-15T00:19:08;100764.63;;;5.16;92.26
7297;BME280;40758;54.038;11.684;2023-04-15T00:21:35;100767.47;;;5.15;92.07
7297;BME280;40758;54.038;11.684;2023-04-15T00:24:02;100763.22;;;5.20;92.27
7297;BME280;40758;54.038;11.684;2023-04-15T00:26:29;100755.97;;;5.21;91.87
7297;BME280;40758;54.038;11.684;2023-04-15T00:28:55;100764.03;;;5.21;92.34
7297;BME280;40758;54.038;11.684;2023-04-15T00:31:22;100767.13;;;5.18;92.08
7297;BME280;40758;54.038;11.684;2023-04-15T00:33:49;100759.59;;;5.13;92.42
7297;BME280;40758;54.038;11.684;2023-04-15T00:36:15;100752.84;;;5.17;92.06
7297;BME280;40758;54.038;11.684;2023-04-15T00:38:42;100750.50;;;5.29;92.07
7297;BME280;40758;54.038;11.684;2023-04-15T00:41:09;100747.97;;;5.27;92.21
7297;BME280;40758;54.038;11.684;2023-04-15T00:43:39;100753.13;;;5.22;91.73
7297;BME280;40758;54.038;11.684;2023-04-15T00:46:08;100740.84;;;5.20;92.09
7297;BME280;40758;54.038;11.684;2023-04-15T00:48:38;100745.19;;;5.21;92.10
7297;BME280;40758;54.038;11.684;2023-04-15T00:51:05;100740.19;;;5.18;92.10
7297;BME280;40758;54.038;11.684;2023-04-15T00:53:33;100740.66;;;5.21;92.32
7297;BME280;40758;54.038;11.684;2023-04-15T00:55:59;100744.91;;;5.16;92.34
7297;BME280;40758;54.038;11.684;2023-04-15T00:58:26;100737.88;;;5.15;92.39
7297;BME280;40758;54.038;11.684;2023-04-15T01:00:55;100725.63;;;5.12;92.13
7297;BME280;40758;54.038;11.684;2023-04-15T01:03:22;100725.53;;;5.05;92.14
7297;BME280;40758;54.038;11.684;2023-04-15T01:05:50;100731.56;;;5.07;92.70
7297;BME280;40758;54.038;11.684;2023-04-15T01:08:29;100725.81;;;5.11;92.38
7297;BME280;40758;54.038;11.684;2023-04-15T01:10:58;100727.66;;;5.10;92.53
7297;BME280;40758;54.038;11.684;2023-04-15T01:13:27;100724.97;;;5.10;92.20
7297;BME280;40758;54.038;11.684;2023-04-15T01:15:55;100731.22;;;5.11;92.55
7297;BME280;40758;54.038;11.684;2023-04-15T01:18:23;100722.28;;;5.10;92.37
7297;BME280;40758;54.038;11.684;2023-04-15T01:20:49;100715.50;;;5.14;92.59
7297;BME280;40758;54.038;11.684;2023-04-15T01:23:17;100716.16;;;5.16;92.58
7297;BME280;40758;54.038;11.684;2023-04-15T01:25:44;100711.44;;;5.18;92.13
7297;BME280;40758;54.038;11.684;2023-04-15T01:28:11;100710.41;;;5.19;92.20
7297;BME280;40758;54.038;11.684;2023-04-15T01:30:38;100711.63;;;5.17;92.47
7297;BME280;40758;54.038;11.684;2023-04-15T01:33:05;100706.69;;;5.20;92.61
7297;BME280;40758;54.038;11.684;2023-04-15T01:35:32;100701.84;;;5.16;92.24
7297;BME280;40758;54.038;11.684;2023-04-15T01:38:04;100704.28;;;5.11;92.70
7297;BME280;40758;54.038;11.684;2023-04-15T01:40:31;100704.94;;;5.13;92.76
7297;BME280;40758;54.038;11.684;2023-04-15T01:42:59;100692.78;;;5.17;92.67
7297;BME280;40758;54.038;11.684;2023-04-15T01:45:27;100692.19;;;5.21;92.03
7297;BME280;40758;54.038;11.684;2023-04-15T01:47:53;100689.88;;;5.18;92.27
7297;BME280;40758;54.038;11.684;2023-04-15T01:50:20;100675.59;;;5.18;92.65
7297;BME280;40758;54.038;11.684;2023-04-15T01:52:47;100687.19;;;5.18;92.21
7297;BME280;40758;54.038;11.684;2023-04-15T01:55:14;100680.72;;;5.13;92.51
7297;BME280;40758;54.038;11.684;2023-04-15T01:57:42;100683.59;;;5.11;92.64
7297;BME280;40758;54.038;11.684;2023-04-15T02:00:09;100682.75;;;5.11;92.55
7297;BME280;40758;54.038;11.684;2023-04-15T02:02:37;100692.84;;;5.08;92.44
7297;BME280;40758;54.038;11.684;2023-04-15T02:05:05;100688.69;;;5.06;92.43
7297;BME280;40758;54.038;11.684;2023-04-15T02:07:32;100691.84;;;5.10;92.47
7297;BME280;40758;54.038;11.684;2023-04-15T02:09:58;100692.31;;;5.13;92.38
7297;BME280;40758;54.038;11.684;2023-04-15T02:12:25;100688.50;;;5.07;92.33
7297;BME280;40758;54.038;11.684;2023-04-15T02:14:52;100698.78;;;5.04;92.53
7297;BME280;40758;54.038;11.684;2023-04-15T02:17:19;100708.28;;;5.00;92.48
7297;BME280;40758;54.038;11.684;2023-04-15T02:19:47;100709.31;;;4.99;92.48
7297;BME280;40758;54.038;11.684;2023-04-15T02:22:13;100709.47;;;4.97;92.62
7297;BME280;40758;54.038;11.684;2023-04-15T02:24:44;100706.63;;;4.99;93.09
7297;BME280;40758;54.038;11.684;2023-04-15T02:27:15;100710.59;;;5.03;92.90
7297;BME280;40758;54.038;11.684;2023-04-15T02:29:45;100710.44;;;5.04;93.00
7297;BME280;40758;54.038;11.684;2023-04-15T02:32:12;100704.00;;;5.05;93.00
7297;BME280;40758;54.038;11.684;2023-04-15T02:34:39;100703.34;;;5.03;92.94
7297;BME280;40758;54.038;11.684;2023-04-15T02:37:13;100699.38;;;4.99;92.81
7297;BME280;40758;54.038;11.684;2023-04-15T02:39:39;100709.56;;;5.04;93.22
7297;BME280;40758;54.038;11.684;2023-04-15T02:42:07;100711.59;;;5.02;93.13
7297;BME280;40758;54.038;11.684;2023-04-15T02:44:34;100706.22;;;5.02;92.59
7297;BME280;40758;54.038;11.684;2023-04-15T02:47:01;100702.91;;;5.00;93.12
7297;BME280;40758;54.038;11.684;2023-04-15T02:49:31;100701.47;;;5.04;93.20
7297;BME280;40758;54.038;11.684;2023-04-15T02:51:58;100705.03;;;5.04;93.38
7297;BME280;40758;54.038;11.684;2023-04-15T02:54:25;100707.06;;;5.02;93.12
7297;BME280;40758;54.038;11.684;2023-04-15T02:56:55;100707.91;;;5.03;92.88
7297;BME280;40758;54.038;11.684;2023-04-15T02:59:22;100696.09;;;5.04;93.17
7297;BME280;40758;54.038;11.684;2023-04-15T03:01:48;100703.19;;;5.05;92.88
7297;BME280;40758;54.038;11.684;2023-04-15T03:04:16;100704.00;;;5.05;93.23
7297;BME280;40758;54.038;11.684;2023-04-15T03:06:43;100703.00;;;5.06;92.94
7297;BME280;40758;54.038;11.684;2023-04-15T03:09:09;100704.66;;;5.07;93.16
7297;BME280;40758;54.038;11.684;2023-04-15T03:11:38;100696.38;;;5.09;93.01
7297;BME280;40758;54.038;11.684;2023-04-15T03:14:08;100693.53;;;5.11;93.15
7297;BME280;40758;54.038;11.684;2023-04-15T03:16:35;100696.66;;;5.14;92.92
7297;BME280;40758;54.038;11.684;2023-04-15T03:19:01;100699.16;;;5.16;93.06
7297;BME280;40758;54.038;11.684;2023-04-15T03:21:29;100699.81;;;5.18;93.19
7297;BME280;40758;54.038;11.684;2023-04-15T03:23:56;100688.22;;;5.17;93.01
7297;BME280;40758;54.038;11.684;2023-04-15T03:26:31;100683.00;;;5.16;92.94
7297;BME280;40758;54.038;11.684;2023-04-15T03:28:58;100686.09;;;5.13;93.09
7297;BME280;40758;54.038;11.684;2023-04-15T03:31:25;100701.22;;;5.14;92.88
7297;BME280;40758;54.038;11.684;2023-04-15T03:33:52;100689.81;;;5.12;93.34
7297;BME280;40758;54.038;11.684;2023-04-15T03:36:19;100690.66;;;5.12;93.04
7297;BME280;40758;54.038;11.684;2023-04-15T03:38:45;100696.03;;;5.12;92.46
7297;BME280;40758;54.038;11.684;2023-04-15T03:41:12;100694.53;;;5.10;92.74
7297;BME280;40758;54.038;11.684;2023-04-15T03:43:39;100698.72;;;5.12;92.84
7297;BME280;40758;54.038;11.684;2023-04-15T03:46:07;100701.84;;;5.16;93.09
7297;BME280;40758;54.038;11.684;2023-04-15T03:48:34;100697.34;;;5.16;93.08
7297;BME280;40758;54.038;11.684;2023-04-15T03:51:01;100698.78;;;5.19;93.22
7297;BME280;40758;54.038;11.684;2023-04-15T03:53:28;100696.09;;;5.19;93.03
7297;BME280;40758;54.038;11.684;2023-04-15T03:55:55;100696.47;;;5.16;92.85
7297;BME280;40758;54.038;11.684;2023-04-15T03:58:22;100698.78;;;5.19;93.05
7297;BME280;40758;54.038;11.684;2023-04-15T04:00:48;100700.03;;;5.16;93.01
7297;BME280;40758;54.038;11.684;2023-04-15T04:03:15;100703.91;;;5.14;92.88
7297;BME280;40758;54.038;11.684;2023-04-15T04:05:43;100703.72;;;5.15;93.43
7297;BME280;40758;54.038;11.684;2023-04-15T04:08:10;100700.19;;;5.15;93.18
7297;BME280;40758;54.038;11.684;2023-04-15T04:10:39;100697.34;;;5.16;92.83
7297;BME280;40758;54.038;11.684;2023-04-15T04:13:07;100708.94;;;5.17;92.99
7297;BME280;40758;54.038;11.684;2023-04-15T04:15:34;100715.50;;;5.14;92.85
7297;BME280;40758;54.038;11.684;2023-04-15T04:18:01;100714.03;;;5.12;93.40
7297;BME280;40758;54.038;11.684;2023-04-15T04:20:27;100722.47;;;5.23;93.44
7297;BME280;40758;54.038;11.684;2023-04-15T04:22:54;100714.41;;;5.23;93.25
7297;BME280;40758;54.038;11.684;2023-04-15T04:25:21;100718.19;;;5.29;93.60
7297;BME280;40758;54.038;11.684;2023-04-15T04:27:48;100705.94;;;5.26;93.08
7297;BME280;40758;54.038;11.684;2023-04-15T04:30:14;100712.25;;;5.33;93.13
7297;BME280;40758;54.038;11.684;2023-04-15T04:32:42;100713.09;;;5.34;93.48
7297;BME280;40758;54.038;11.684;2023-04-15T04:35:08;100724.31;;;5.38;93.48
7297;BME280;40758;54.038;11.684;2023-04-15T04:37:37;100734.72;;;5.41;93.11
7297;BME280;40758;54.038;11.684;2023-04-15T04:40:05;100720.84;;;5.44;93.18
7297;BME280;40758;54.038;11.684;2023-04-15T04:42:31;100731.34;;;5.53;93.37
7297;BME280;40758;54.038;11.684;2023-04-15T04:44:58;100729.28;;;5.55;93.05
7297;BME280;40758;54.038;11.684;2023-04-15T04:47:25;100728.91;;;5.58;93.13
7297;BME280;40758;54.038;11.684;2023-04-15T04:49:51;100711.94;;;5.58;93.25
7297;BME280;40758;54.038;11.684;2023-04-15T04:52:18;100723.13;;;5.61;93.20
7297;BME280;40758;54.038;11.684;2023-04-15T04:54:45;100721.09;;;5.64;93.49
7297;BME280;40758;54.038;11.684;2023-04-15T04:57:12;100720.28;;;5.63;93.45
7297;BME280;40758;54.038;11.684;2023-04-15T04:59:39;100735.47;;;5.71;93.71
7297;BME280;40758;54.038;11.684;2023-04-15T05:02:08;100730.38;;;5.76;93.54
7297;BME280;40758;54.038;11.684;2023-04-15T05:04:35;100738.25;;;5.77;93.33
7297;BME280;40758;54.038;11.684;2023-04-15T05:07:02;100744.09;;;5.81;93.01
7297;BME280;40758;54.038;11.684;2023-04-15T05:09:29;100740.19;;;5.83;93.43
7297;BME280;40758;54.038;11.684;2023-04-15T05:11:57;100739.63;;;5.88;93.26
7297;BME280;40758;54.038;11.684;2023-04-15T05:14:24;100749.16;;;5.91;93.49
7297;BME280;40758;54.038;11.684;2023-04-15T05:16:52;100737.22;;;5.93;93.69
7297;BME280;40758;54.038;11.684;2023-04-15T05:19:19;100743.91;;;5.97;93.58
7297;BME280;40758;54.038;11.684;2023-04-15T05:21:45;100751.41;;;6.02;93.52
7297;BME280;40758;54.038;11.684;2023-04-15T05:24:12;100743.38;;;6.08;93.56
7297;BME280;40758;54.038;11.684;2023-04-15T05:26:39;100739.91;;;6.14;93.08
7297;BME280;40758;54.038;11.684;2023-04-15T05:29:08;100739.34;;;6.19;93.73
7297;BME280;40758;54.038;11.684;2023-04-15T05:31:35;100737.72;;;6.25;93.11
7297;BME280;40758;54.038;11.684;2023-04-15T05:34:02;100747.69;;;6.24;92.94
7297;BME280;40758;54.038;11.684;2023-04-15T05:36:29;100753.06;;;6.24;92.87
7297;BME280;40758;54.038;11.684;2023-04-15T05:38:56;100749.19;;;6.27;93.21
7297;BME280;40758;54.038;11.684;2023-04-15T05:41:23;100750.06;;;6.34;93.15
7297;BME280;40758;54.038;11.684;2023-04-15T05:43:50;100751.53;;;6.36;93.32
7297;BME280;40758;54.038;11.684;2023-04-15T05:46:17;100766.50;;;6.39;93.17
7297;BME280;40758;54.038;11.684;2023-04-15T05:48:44;100762.16;;;6.38;93.27
7297;BME280;40758;54.038;11.684;2023-04-15T05:51:11;100768.44;;;6.45;93.41
7297;BME280;40758;54.038;11.684;2023-04-15T05:53:38;100761.59;;;6.49;93.02
7297;BME280;40758;54.038;11.684;2023-04-15T05:56:08;100764.75;;;6.53;93.41
7297;BME280;40758;54.038;11.684;2023-04-15T05:58:36;100768.34;;;6.60;93.84
7297;BME280;40758;54.038;11.684;2023-04-15T06:01:03;100767.38;;;6.68;93.14
7297;BME280;40758;54.038;11.684;2023-04-15T06:03:31;100768.63;;;6.72;92.68
7297;BME280;40758;54.038;11.684;2023-04-15T06:05:58;100764.97;;;6.79;93.31
7297;BME280;40758;54.038;11.684;2023-04-15T06:08:26;100765.44;;;6.89;93.71
7297;BME280;40758;54.038;11.684;2023-04-15T06:10:53;100771.56;;;6.98;92.94
7297;BME280;40758;54.038;11.684;2023-04-15T06:13:19;100774.69;;;7.02;92.82
7297;BME280;40758;54.038;11.684;2023-04-15T06:15:46;100778.69;;;7.12;93.37
7297;BME280;40758;54.038;11.684;2023-04-15T06:18:13;100789.34;;;7.20;92.63
7297;BME280;40758;54.038;11.684;2023-04-15T06:20:39;100789.44;;;7.34;92.77
7297;BME280;40758;54.038;11.684;2023-04-15T06:23:08;100795.69;;;7.41;92.43
7297;BME280;40758;54.038;11.684;2023-04-15T06:25:35;100792.19;;;7.47;93.15
7297;BME280;40758;54.038;11.684;2023-04-15T06:28:02;100791.00;;;7.56;93.04
7297;BME280;40758;54.038;11.684;2023-04-15T06:30:28;100801.63;;;7.64;92.39
7297;BME280;40758;54.038;11.684;2023-04-15T06:32:56;100797.31;;;7.77;92.52
7297;BME280;40758;54.038;11.684;2023-04-15T06:35:22;100794.69;;;7.90;93.02
7297;BME280;40758;54.038;11.684;2023-04-15T06:37:49;100797.03;;;8.06;92.34
7297;BME280;40758;54.038;11.684;2023-04-15T06:40:17;100804.75;;;8.22;92.52
7297;BME280;40758;54.038;11.684;2023-04-15T06:42:43;100806.53;;;8.50;92.30
7297;BME280;40758;54.038;11.684;2023-04-15T06:45:11;100805.06;;;8.80;92.13
7297;BME280;40758;54.038;11.684;2023-04-15T06:47:37;100796.72;;;9.15;91.69
7297;BME280;40758;54.038;11.684;2023-04-15T06:50:04;100806.91;;;9.33;91.14
7297;BME280;40758;54.038;11.684;2023-04-15T06:52:32;100809.94;;;9.70;91.32
7297;BME280;40758;54.038;11.684;2023-04-15T06:54:58;100805.91;;;9.85;90.78
7297;BME280;40758;54.038;11.684;2023-04-15T06:57:25;100807.53;;;10.00;90.30
7297;BME280;40758;54.038;11.684;2023-04-15T06:59:52;100812.75;;;9.95;88.92
7297;BME280;40758;54.038;11.684;2023-04-15T07:02:20;100812.13;;;9.99;89.65
7297;BME280;40758;54.038;11.684;2023-04-15T07:04:46;100808.28;;;10.13;88.69
7297;BME280;40758;54.038;11.684;2023-04-15T07:07:14;100813.38;;;10.03;89.10
7297;BME280;40758;54.038;11.684;2023-04-15T07:09:43;100808.81;;;9.91;89.24
7297;BME280;40758;54.038;11.684;2023-04-15T07:12:12;100808.81;;;9.97;88.94
7297;BME280;40758;54.038;11.684;2023-04-15T07:14:39;100809.94;;;10.21;88.86
7297;BME280;40758;54.038;11.684;2023-04-15T07:17:08;100810.28;;;10.38;88.84
7297;BME280;40758;54.038;11.684;2023-04-15T07:19:35;100813.34;;;10.48;88.37
7297;BME280;40758;54.038;11.684;2023-04-15T07:22:03;100812.31;;;10.43;87.73
7297;BME280;40758;54.038;11.684;2023-04-15T07:24:29;100817.22;;;10.59;87.86
7297;BME280;40758;54.038;11.684;2023-04-15T07:26:56;100812.09;;;11.01;87.61
7297;BME280;40758;54.038;11.684;2023-04-15T07:29:26;100815.28;;;11.59;88.12
7297;BME280;40758;54.038;11.684;2023-04-15T07:31:52;100820.94;;;11.58;86.61
7297;BME280;40758;54.038;11.684;2023-04-15T07:34:19;100821.66;;;11.71;86.55
7297;BME280;40758;54.038;11.684;2023-04-15T07:36:46;100821.13;;;11.81;85.93
7297;BME280;40758;54.038;11.684;2023-04-15T07:39:16;100817.94;;;12.03;85.55
7297;BME280;40758;54.038;11.684;2023-04-15T07:41:43;100814.69;;;11.94;84.79
7297;BME280;40758;54.038;11.684;2023-04-15T07:44:10;100824.81;;;12.05;84.67
7297;BME280;40758;54.038;11.684;2023-04-15T07:46:38;100823.81;;;12.18;85.07
7297;BME280;40758;54.038;11.684;2023-04-15T07:49:04;100828.06;;;11.77;84.72
7297;BME280;40758;54.038;11.684;2023-04-15T07:51:32;100826.97;;;11.85;84.24
7297;BME280;40758;54.038;11.684;2023-04-15T07:53:58;100833.63;;;11.64;84.91
7297;BME280;40758;54.038;11.684;2023-04-15T07:56:25;100834.53;;;11.39;83.18
7297;BME280;40758;54.038;11.684;2023-04-15T07:58:52;100833.22;;;11.42;84.18
7297;BME280;40758;54.038;11.684;2023-04-15T08:01:19;100832.81;;;11.45;84.27
7297;BME280;40758;54.038;11.684;2023-04-15T08:03:45;100832.88;;;11.38;83.85
7297;BME280;40758;54.038;11.684;2023-04-15T08:06:13;100833.56;;;11.52;83.80
7297;BME280;40758;54.038;11.684;2023-04-15T08:08:40;100841.19;;;11.43;83.49
7297;BME280;40758;54.038;11.684;2023-04-15T08:11:09;100836.75;;;11.49;83.31
7297;BME280;40758;54.038;11.684;2023-04-15T08:13:37;100840.13;;;11.63;83.43
7297;BME280;40758;54.038;11.684;2023-04-15T08:16:17;100837.66;;;11.61;82.44
7297;BME280;40758;54.038;11.684;2023-04-15T08:18:47;100842.38;;;11.48;82.10
7297;BME280;40758;54.038;11.684;2023-04-15T08:21:15;100839.53;;;11.61;82.17
7297;BME280;40758;54.038;11.684;2023-04-15T08:23:43;100850.44;;;11.79;82.17
7297;BME280;40758;54.038;11.684;2023-04-15T08:26:13;100855.31;;;11.95;81.64
7297;BME280;40758;54.038;11.684;2023-04-15T08:28:44;100855.56;;;12.24;81.36
7297;BME280;40758;54.038;11.684;2023-04-15T08:31:15;100856.72;;;12.46;81.68
7297;BME280;40758;54.038;11.684;2023-04-15T08:33:43;100857.84;;;12.69;81.41
7297;BME280;40758;54.038;11.684;2023-04-15T08:36:09;100850.09;;;12.84;79.92
7297;BME280;40758;54.038;11.684;2023-04-15T08:38:43;100863.25;;;12.87;79.01
7297;BME280;40758;54.038;11.684;2023-04-15T08:41:25;100854.69;;;12.72;78.58
7297;BME280;40758;54.038;11.684;2023-04-15T08:43:56;100858.09;;;12.67;78.04
7297;BME280;40758;54.038;11.684;2023-04-15T08:46:23;100864.38;;;12.68;78.57
7297;BME280;40758;54.038;11.684;2023-04-15T08:48:51;100871.13;;;12.65;78.74
7297;BME280;40758;54.038;11.684;2023-04-15T08:51:21;100865.41;;;12.55;78.83
7297;BME280;40758;54.038;11.684;2023-04-15T08:53:51;100866.72;;;12.52;78.87
7297;BME280;40758;54.038;11.684;2023-04-15T08:56:18;100876.59;;;12.35;78.82
7297;BME280;40758;54.038;11.684;2023-04-15T08:58:45;100874.47;;;12.19;78.90
7297;BME280;40758;54.038;11.684;2023-04-15T09:01:13;100887.78;;;12.09;78.57
7297;BME280;40758;54.038;11.684;2023-04-15T09:03:45;100882.44;;;12.02;78.92
7297;BME280;40758;54.038;11.684;2023-04-15T09:06:15;100884.84;;;12.10;78.46
7297;BME280;40758;54.038;11.684;2023-04-15T09:08:45;100885.22;;;12.14;78.40
7297;BME280;40758;54.038;11.684;2023-04-15T09:11:12;100892.47;;;12.20;78.87
7297;BME280;40758;54.038;11.684;2023-04-15T09:13:39;100880.81;;;12.31;78.88
7297;BME280;40758;54.038;11.684;2023-04-15T09:16:08;100891.91;;;12.48;78.51
7297;BME280;40758;54.038;11.684;2023-04-15T09:18:40;100900.94;;;12.30;78.24
7297;BME280;40758;54.038;11.684;2023-04-15T09:21:12;100893.88;;;12.22;77.80
7297;BME280;40758;54.038;11.684;2023-04-15T09:23:58;100904.53;;;12.42;77.57
7297;BME280;40758;54.038;11.684;2023-04-15T09:26:33;100908.19;;;12.36;77.60
7297;BME280;40758;54.038;11.684;2023-04-15T09:29:04;100907.56;;;12.52;77.08
7297;BME280;40758;54.038;11.684;2023-04-15T09:31:32;100914.81;;;12.40;76.16
7297;BME280;40758;54.038;11.684;2023-04-15T09:33:59;100915.66;;;12.22;75.62
7297;BME280;40758;54.038;11.684;2023-04-15T09:36:26;100917.88;;;11.95;75.43
7297;BME280;40758;54.038;11.684;2023-04-15T09:38:56;100918.88;;;11.76;75.59
7297;BME280;40758;54.038;11.684;2023-04-15T09:41:26;100913.81;;;11.61;75.53
7297;BME280;40758;54.038;11.684;2023-04-15T09:43:54;100914.41;;;11.63;76.21
7297;BME280;40758;54.038;11.684;2023-04-15T09:46:39;100923.16;;;11.90;76.94
7297;BME280;40758;54.038;11.684;2023-04-15T09:49:10;100926.81;;;12.03;76.79
7297;BME280;40758;54.038;11.684;2023-04-15T09:51:43;100922.72;;;12.12;75.80
7297;BME280;40758;54.038;11.684;2023-04-15T09:54:23;100921.66;;;12.13;75.88
7297;BME280;40758;54.038;11.684;2023-04-15T09:56:49;100921.66;;;12.13;75.93
7297;BME280;40758;54.038;11.684;2023-04-15T09:59:16;100925.81;;;12.15;74.67
7297;BME280;40758;54.038;11.684;2023-04-15T10:01:45;100927.56;;;12.10;74.60
7297;BME280;40758;54.038;11.684;2023-04-15T10:04:12;100931.09;;;12.10;74.48
7297;BME280;40758;54.038;11.684;2023-04-15T10:06:43;100932.91;;;12.16;74.69
7297;BME280;40758;54.038;11.684;2023-04-15T10:09:10;100927.28;;;12.18;74.81
7297;BME280;40758;54.038;11.684;2023-04-15T10:11:38;100939.88;;;12.31;74.47
7297;BME280;40758;54.038;11.684;2023-04-15T10:14:06;100941.94;;;12.35;73.87
7297;BME280;40758;54.038;11.684;2023-04-15T10:16:35;100945.06;;;12.50;74.42
7297;BME280;40758;54.038;11.684;2023-04-15T10:19:05;100930.50;;;12.75;73.89
7297;BME280;40758;54.038;11.684;2023-04-15T10:21:35;100941.47;;;12.98;73.52
7297;BME280;40758;54.038;11.684;2023-04-15T10:24:03;100950.81;;;13.21;73.61
7297;BME280;40758;54.038;11.684;2023-04-15T10:26:30;100943.63;;;13.08;72.24
7297;BME280;40758;54.038;11.684;2023-04-15T10:28:58;100946.38;;;13.08;72.21
7297;BME280;40758;54.038;11.684;2023-04-15T10:31:25;100943.28;;;13.04;71.60
7297;BME280;40758;54.038;11.684;2023-04-15T10:33:52;100950.47;;;12.87;70.84
7297;BME280;40758;54.038;11.684;2023-04-15T10:36:20;100953.41;;;12.56;71.08
7297;BME280;40758;54.038;11.684;2023-04-15T10:38:46;100952.63;;;12.67;72.31
7297;BME280;40758;54.038;11.684;2023-04-15T10:41:24;100954.03;;;12.69;72.03
7297;BME280;40758;54.038;11.684;2023-04-15T10:44:01;100953.53;;;12.61;71.12
7297;BME280;40758;54.038;11.684;2023-04-15T10:46:42;100952.03;;;12.65;71.83
7297;BME280;40758;54.038;11.684;2023-04-15T10:49:23;100954.22;;;12.56;71.92
7297;BME280;40758;54.038;11.684;2023-04-15T10:51:52;100948.22;;;12.96;71.84
7297;BME280;40758;54.038;11.684;2023-04-15T10:57:16;100960.63;;;13.64;70.57
7297;BME280;40758;54.038;11.684;2023-04-15T11:02:53;100963.22;;;14.05;69.21
7297;BME280;40758;54.038;11.684;2023-04-15T11:05:22;100959.69;;;13.93;67.94
7297;BME280;40758;54.038;11.684;2023-04-15T11:07:53;100956.44;;;13.96;68.46
7297;BME280;40758;54.038;11.684;2023-04-15T11:12:58;100964.75;;;14.13;66.75
7297;BME280;40758;54.038;11.684;2023-04-15T11:18:10;100984.44;;;13.56;67.52
7297;BME280;40758;54.038;11.684;2023-04-15T11:20:40;100981.38;;;13.53;67.38
7297;BME280;40758;54.038;11.684;2023-04-15T11:23:13;100991.75;;;13.02;67.31
7297;BME280;40758;54.038;11.684;2023-04-15T11:25:42;100969.66;;;12.62;66.23
7297;BME280;40758;54.038;11.684;2023-04-15T11:28:10;100981.22;;;12.76;68.34
7297;BME280;40758;54.038;11.684;2023-04-15T11:30:39;100978.06;;;12.61;68.25
7297;BME280;40758;54.038;11.684;2023-04-15T11:33:13;100985.50;;;12.84;68.43
7297;BME280;40758;54.038;11.684;2023-04-15T11:35:42;100983.00;;;13.12;69.13
7297;BME280;40758;54.038;11.684;2023-04-15T11:38:14;100986.09;;;13.16;68.71
7297;BME280;40758;54.038;11.684;2023-04-15T11:40:44;100976.22;;;13.03;67.41
7297;BME280;40758;54.038;11.684;2023-04-15T11:43:18;100976.03;;;12.86;67.44
7297;BME280;40758;54.038;11.684;2023-04-15T11:45:53;100973.03;;;13.06;68.32
7297;BME280;40758;54.038;11.684;2023-04-15T11:48:22;100976.69;;;13.30;67.32
7297;BME280;40758;54.038;11.684;2023-04-15T11:50:57;100965.38;;;13.80;67.48
7297;BME280;40758;54.038;11.684;2023-04-15T11:53:36;100973.88;;;14.19;65.72
7297;BME280;40758;54.038;11.684;2023-04-15T11:56:04;100987.09;;;14.10;64.95
7297;BME280;40758;54.038;11.684;2023-04-15T11:58:34;100979.25;;;14.02;64.86
7297;BME280;40758;54.038;11.684;2023-04-15T12:01:04;100980.06;;;14.02;65.42
7297;BME280;40758;54.038;11.684;2023-04-15T12:06:24;100986.69;;;14.30;63.54
7297;BME280;40758;54.038;11.684;2023-04-15T12:14:01;100985.44;;;14.73;63.41
7297;BME280;40758;54.038;11.684;2023-04-15T12:16:28;100982.16;;;14.59;61.90
7297;BME280;40758;54.038;11.684;2023-04-15T12:18:57;100990.91;;;14.73;62.42
7297;BME280;40758;54.038;11.684;2023-04-15T12:21:26;100987.78;;;14.81;62.35
7297;BME280;40758;54.038;11.684;2023-04-15T12:23:57;101000.66;;;14.69;61.38
7297;BME280;40758;54.038;11.684;2023-04-15T12:26:29;100994.66;;;14.83;61.20
7297;BME280;40758;54.038;11.684;2023-04-15T12:29:02;100996.09;;;14.86;61.65
7297;BME280;40758;54.038;11.684;2023-04-15T12:31:29;101008.06;;;14.97;61.39
7297;BME280;40758;54.038;11.684;2023-04-15T12:33:57;101001.31;;;14.87;60.71
7297;BME280;40758;54.038;11.684;2023-04-15T12:36:24;101019.31;;;14.60;59.74
7297;BME280;40758;54.038;11.684;2023-04-15T12:38:50;101015.03;;;14.64;60.33
7297;BME280;40758;54.038;11.684;2023-04-15T12:41:19;101014.91;;;14.71;59.59
7297;BME280;40758;54.038;11.684;2023-04-15T12:43:46;101015.47;;;14.84;59.96
7297;BME280;40758;54.038;11.684;2023-04-15T12:46:13;101014.78;;;15.06;59.43
7297;BME280;40758;54.038;11.684;2023-04-15T12:48:42;101013.59;;;15.13;59.62
7297;BME280;40758;54.038;11.684;2023-04-15T12:51:09;101016.78;;;14.82;57.10
7297;BME280;40758;54.038;11.684;2023-04-15T12:53:37;101013.44;;;14.92;59.07
7297;BME280;40758;54.038;11.684;2023-04-15T12:56:03;101022.97;;;14.77;59.75
7297;BME280;40758;54.038;11.684;2023-04-15T12:58:30;101017.91;;;14.98;59.24
7297;BME280;40758;54.038;11.684;2023-04-15T13:00:57;101026.66;;;15.11;59.12
7297;BME280;40758;54.038;11.684;2023-04-15T13:03:24;101031.97;;;15.18;57.67
7297;BME280;40758;54.038;11.684;2023-04-15T13:05:51;101038.34;;;15.52;58.81
7297;BME280;40758;54.038;11.684;2023-04-15T13:08:19;101042.63;;;15.77;59.06
7297;BME280;40758;54.038;11.684;2023-04-15T13:10:46;101041.91;;;15.53;57.70
7297;BME280;40758;54.038;11.684;2023-04-15T13:13:13;101048.88;;;15.15;57.55
7297;BME280;40758;54.038;11.684;2023-04-15T13:15:40;101054.53;;;14.97;57.91
7297;BME280;40758;54.038;11.684;2023-04-15T13:18:09;101053.34;;;14.93;58.97
7297;BME280;40758;54.038;11.684;2023-04-15T13:20:37;101059.16;;;14.44;57.26